Time;durP1;ratioP1;P1;durP2;ratioP2;P2;SDS_P1;SDS_P2;PMS_P1;PMS_P2;Temp;Humidity;BMP_temperature;BMP_pressure;BME280_temperature;BME280_humidity;BME280_pressure;Samples;Min_cycle;Max_cycle;Signal;HPM_P1;HPM_P2
2023/08/19 04:07:01;;;;;;;2.20;2.10;;;19.10;99.90;;;;;;4956067;29;20837;-62
2023/08/19 04:09:27;;;;;;;2.43;2.23;;;19.10;99.90;;;;;;4957811;29;20405;-62
2023/08/19 04:11:52;;;;;;;2.67;2.47;;;19.00;99.90;;;;;;4957975;29;20587;-62
2023/08/19 04:14:18;;;;;;;2.37;2.17;;;19.10;99.90;;;;;;4957608;28;20201;-62
2023/08/19 04:16:43;;;;;;;2.37;2.17;;;19.00;99.90;;;;;;4940723;29;20508;-62
2023/08/19 04:19:09;;;;;;;2.40;2.20;;;19.00;99.90;;;;;;4957862;29;20185;-62
2023/08/19 04:21:34;;;;;;;3.07;2.77;;;19.00;99.90;;;;;;4957905;29;20188;-62
2023/08/19 04:24:00;;;;;;;3.03;2.73;;;19.00;99.90;;;;;;4957394;29;20204;-62
2023/08/19 04:26:26;;;;;;;2.33;2.17;;;19.10;99.90;;;;;;4957644;28;20192;-62
2023/08/19 04:28:52;;;;;;;2.03;1.93;;;19.00;99.90;;;;;;4957833;29;20173;-62
2023/08/19 04:31:18;;;;;;;2.23;2.13;;;19.00;99.90;;;;;;4957776;29;20586;-62
2023/08/19 04:33:43;;;;;;;3.10;2.20;;;19.00;99.90;;;;;;4957151;29;20459;-62
2023/08/19 04:36:09;;;;;;;2.80;2.60;;;19.00;99.90;;;;;;4956744;28;20520;-62
2023/08/19 04:38:35;;;;;;;1.97;1.83;;;19.10;99.90;;;;;;4957416;29;20202;-62
2023/08/19 04:41:01;;;;;;;2.50;2.07;;;19.10;99.90;;;;;;4957348;29;20171;-62
2023/08/19 04:43:27;;;;;;;2.17;2.00;;;19.20;99.90;;;;;;4957243;29;20208;-62
2023/08/19 04:45:54;;;;;;;2.40;2.30;;;19.30;99.90;;;;;;4957169;28;20612;-62
2023/08/19 04:48:20;;;;;;;3.37;1.90;;;19.40;99.90;;;;;;4957284;29;20815;-62
2023/08/19 04:50:46;;;;;;;1.70;1.60;;;19.40;99.90;;;;;;4957357;29;20420;-62
2023/08/19 04:53:12;;;;;;;2.10;2.00;;;19.50;99.90;;;;;;4957205;29;20854;-62
2023/08/19 04:55:37;;;;;;;2.37;2.20;;;19.70;99.90;;;;;;4956953;28;20197;-62
2023/08/19 04:58:03;;;;;;;2.13;1.80;;;19.90;99.90;;;;;;4957216;29;20177;-62
2023/08/19 05:00:28;;;;;;;2.33;2.23;;;20.10;99.90;;;;;;4957128;29;20181;-62
2023/08/19 05:02:54;;;;;;;2.30;2.00;;;20.20;99.90;;;;;;4955886;28;20177;-62
2023/08/19 05:05:19;;;;;;;1.80;1.70;;;20.30;99.90;;;;;;4956357;28;20212;-62
2023/08/19 05:07:45;;;;;;;3.60;1.83;;;20.50;99.90;;;;;;4939675;29;20651;-62
2023/08/19 05:10:11;;;;;;;2.17;1.97;;;20.70;99.90;;;;;;4956916;29;20246;-62
2023/08/19 05:12:36;;;;;;;1.97;1.87;;;20.90;99.90;;;;;;4956700;29;20575;-62
2023/08/19 05:15:02;;;;;;;1.77;1.67;;;21.10;99.90;;;;;;4956355;28;20223;-62
2023/08/19 05:17:28;;;;;;;2.20;2.10;;;21.20;99.90;;;;;;4956801;29;20181;-62
2023/08/19 05:19:56;;;;;;;2.00;1.90;;;21.20;99.90;;;;;;4956576;29;20414;-62
2023/08/19 05:22:22;;;;;;;3.33;2.20;;;21.20;99.90;;;;;;4957058;29;20333;-62
2023/08/19 05:24:51;;;;;;;2.40;2.10;;;21.20;99.90;;;;;;4956203;28;20555;-62
2023/08/19 05:27:17;;;;;;;1.90;1.80;;;21.30;99.90;;;;;;4956524;29;20756;-62
2023/08/19 05:29:43;;;;;;;2.27;2.07;;;21.40;99.90;;;;;;4956426;29;20899;-62
2023/08/19 05:32:08;;;;;;;2.10;1.97;;;21.40;99.90;;;;;;4956495;29;20405;-62
2023/08/19 05:34:34;;;;;;;2.50;2.27;;;21.40;99.90;;;;;;4955962;28;20685;-62
2023/08/19 05:37:04;;;;;;;1.80;1.70;;;21.40;99.90;;;;;;4956413;29;20666;-62
2023/08/19 05:39:30;;;;;;;2.13;1.87;;;21.40;99.90;;;;;;4956268;29;20185;-62
2023/08/19 05:41:55;;;;;;;1.70;1.60;;;21.40;99.90;;;;;;4956390;29;20438;-62
2023/08/19 05:44:21;;;;;;;4.43;3.07;;;21.50;99.90;;;;;;4955961;28;20211;-62
2023/08/19 05:46:46;;;;;;;2.13;2.03;;;21.70;99.90;;;;;;4956242;29;20682;-62
2023/08/19 05:49:12;;;;;;;1.93;1.70;;;21.80;99.90;;;;;;4956338;29;20681;-62
2023/08/19 05:51:37;;;;;;;1.90;1.80;;;21.80;99.90;;;;;;4956560;29;20181;-62
2023/08/19 05:54:03;;;;;;;1.87;1.77;;;21.80;99.90;;;;;;4955823;29;20173;-62
2023/08/19 05:56:29;;;;;;;2.10;2.00;;;21.90;99.90;;;;;;4955933;28;20710;-62
2023/08/19 05:58:55;;;;;;;2.00;1.90;;;22.00;99.90;;;;;;4955972;29;20408;-62
2023/08/19 06:01:20;;;;;;;1.97;1.87;;;22.10;99.90;;;;;;4955901;29;20166;-62
2023/08/19 06:03:46;;;;;;;1.40;1.40;;;22.20;99.90;;;;;;4955448;29;20900;-62
2023/08/19 06:06:11;;;;;;;2.00;1.90;;;22.40;99.90;;;;;;4955526;28;20682;-62
2023/08/19 06:08:37;;;;;;;3.20;2.90;;;22.50;99.90;;;;;;4955774;29;20201;-62
2023/08/19 06:11:06;;;;;;;6.50;2.00;;;22.50;99.90;;;;;;4955727;29;20241;-62
2023/08/19 06:13:33;;;;;;;2.10;2.00;;;22.50;99.90;;;;;;4955557;28;20186;-62
2023/08/19 06:15:58;;;;;;;2.07;1.67;;;22.50;99.90;;;;;;4955201;28;20435;-62
2023/08/19 06:18:24;;;;;;;1.83;1.73;;;22.60;99.90;;;;;;4956187;29;20414;-62
2023/08/19 06:20:51;;;;;;;1.70;1.60;;;22.70;99.90;;;;;;4955510;29;20646;-62
2023/08/19 06:23:18;;;;;;;1.70;1.60;;;22.80;99.90;;;;;;4955571;29;20392;-62
2023/08/19 06:25:53;;;;;;;1.87;1.77;;;22.90;99.90;;;;;;4955275;28;20545;-62
2023/08/19 06:28:21;;;;;;;2.10;1.90;;;23.00;99.90;;;;;;4955621;29;20434;-62
2023/08/19 06:30:47;;;;;;;2.13;2.03;;;23.10;99.90;;;;;;4955482;29;20768;-62
2023/08/19 06:33:14;;;;;;;2.00;1.90;;;23.20;99.90;;;;;;4955492;29;20391;-62
2023/08/19 06:35:40;;;;;;;2.47;2.30;;;23.30;99.90;;;;;;4955150;28;20895;-62
2023/08/19 06:38:19;;;;;;;4.87;2.00;;;23.40;99.90;;;;;;4955346;29;20395;-62
2023/08/19 06:41:05;;;;;;;2.57;2.37;;;23.50;99.90;;;;;;4955433;29;20508;-62
2023/08/19 06:43:32;;;;;;;2.80;2.10;;;23.70;99.90;;;;;;4955191;29;20432;-62
2023/08/19 06:45:58;;;;;;;2.40;2.20;;;23.80;99.90;;;;;;4955160;28;20523;-62
2023/08/19 06:48:24;;;;;;;2.03;1.93;;;23.90;99.90;;;;;;4938086;29;20405;-62
2023/08/19 06:50:54;;;;;;;2.40;2.23;;;24.00;99.90;;;;;;4955379;29;20394;-62
2023/08/19 06:53:21;;;;;;;2.70;2.53;;;24.00;99.90;;;;;;4955250;29;20416;-62
2023/08/19 06:56:08;;;;;;;2.63;2.43;;;24.20;99.90;;;;;;4955211;28;20441;-62
2023/08/19 06:58:41;;;;;;;2.30;2.10;;;24.30;99.90;;;;;;4955326;29;20456;-62
2023/08/19 07:01:22;;;;;;;2.60;2.40;;;24.50;99.90;;;;;;4955453;29;20468;-62
2023/08/19 07:03:51;;;;;;;2.43;2.30;;;24.60;99.90;;;;;;4954976;29;20416;-62
2023/08/19 07:06:20;;;;;;;2.80;2.50;;;24.80;99.90;;;;;;4954829;28;20522;-62
2023/08/19 07:08:46;;;;;;;2.67;2.47;;;24.90;99.90;;;;;;4954975;29;20413;-62
2023/08/19 07:11:12;;;;;;;2.27;2.07;;;25.10;99.90;;;;;;4955217;29;20379;-62
2023/08/19 07:13:38;;;;;;;2.50;2.13;;;25.20;99.90;;;;;;4954868;29;20419;-62
2023/08/19 07:16:05;;;;;;;2.50;2.30;;;25.30;99.90;;;;;;4954831;28;20803;-62
2023/08/19 07:18:36;;;;;;;2.63;2.43;;;25.40;99.90;;;;;;4955063;29;20973;-62
2023/08/19 07:21:04;;;;;;;2.20;2.00;;;25.60;99.90;;;;;;4955132;29;20418;-62
2023/08/19 07:23:30;;;;;;;2.50;2.30;;;25.90;99.90;;;;;;4954688;29;20392;-62
2023/08/19 07:25:58;;;;;;;2.90;2.60;;;26.10;99.90;;;;;;4955016;28;20817;-62
2023/08/19 07:28:24;;;;;;;2.93;2.73;;;26.30;99.90;;;;;;4958835;29;20507;-62
2023/08/19 07:30:50;;;;;;;2.53;2.33;;;26.50;99.90;;;;;;4958799;29;20892;-62
2023/08/19 07:33:16;;;;;;;2.33;2.13;;;26.90;99.90;;;;;;4941447;29;20415;-62
2023/08/19 07:35:43;;;;;;;2.30;2.10;;;27.30;99.90;;;;;;4958441;28;20770;-62
2023/08/19 07:38:08;;;;;;;2.60;2.30;;;27.80;99.90;;;;;;4958772;29;20749;-62
2023/08/19 07:40:34;;;;;;;2.60;2.40;;;28.50;99.90;;;;;;4958710;29;20412;-63
2023/08/19 07:42:59;;;;;;;2.83;2.50;;;29.30;99.60;;;;;;4958672;29;20203;-63
2023/08/19 07:45:25;;;;;;;2.53;2.33;;;30.40;97.40;;;;;;4957945;28;20217;-63
2023/08/19 07:47:51;;;;;;;2.43;2.23;;;31.40;96.00;;;;;;4958335;29;20173;-63
2023/08/19 07:50:16;;;;;;;3.00;2.80;;;32.40;94.50;;;;;;4958440;29;20180;-63
2023/08/19 07:52:42;;;;;;;2.93;2.73;;;33.60;92.00;;;;;;4958448;29;20208;-63
2023/08/19 07:55:08;;;;;;;3.33;2.73;;;34.40;90.80;;;;;;4958021;28;20595;-63
2023/08/19 07:57:34;;;;;;;3.03;2.83;;;35.40;87.10;;;;;;4958271;29;20208;-62
2023/08/19 07:59:59;;;;;;;2.63;2.43;;;36.30;86.00;;;;;;4957971;29;20424;-62
2023/08/19 08:02:25;;;;;;;2.93;2.73;;;36.90;81.60;;;;;;4957896;29;20192;-61
2023/08/19 08:04:50;;;;;;;2.50;2.40;;;37.60;79.40;;;;;;4940766;29;20367;-62
2023/08/19 08:07:16;;;;;;;2.73;2.60;;;38.30;76.00;;;;;;4958067;29;20232;-62
2023/08/19 08:09:45;;;;;;;2.63;2.43;;;38.40;74.10;;;;;;4958301;29;20504;-62
2023/08/19 08:12:11;;;;;;;2.60;2.40;;;38.90;72.70;;;;;;4958152;29;20547;-62
2023/08/19 08:14:36;;;;;;;2.47;2.37;;;39.60;70.90;;;;;;4957457;28;20436;-62
2023/08/19 08:17:02;;;;;;;2.40;2.30;;;40.10;68.30;;;;;;4957941;29;20425;-62
2023/08/19 08:19:28;;;;;;;2.70;2.50;;;40.50;66.80;;;;;;4958029;29;20188;-62
2023/08/19 08:21:54;;;;;;;3.20;2.90;;;40.90;65.90;;;;;;4957769;29;20181;-62
2023/08/19 08:24:20;;;;;;;2.40;2.30;;;41.00;61.90;;;;;;4957334;28;20165;-62
2023/08/19 08:26:46;;;;;;;2.70;2.60;;;41.00;62.80;;;;;;4957849;29;20177;-62
2023/08/19 08:29:12;;;;;;;2.53;2.43;;;41.10;62.20;;;;;;4957524;29;20958;-62
2023/08/19 08:31:37;;;;;;;2.83;2.50;;;41.40;61.60;;;;;;4957801;29;20169;-62
2023/08/19 08:34:03;;;;;;;3.30;3.03;;;41.80;60.80;;;;;;4957256;29;20260;-62
2023/08/19 08:36:28;;;;;;;2.97;2.87;;;42.00;59.80;;;;;;4957470;28;20243;-62
2023/08/19 08:38:54;;;;;;;2.40;2.30;;;42.30;59.10;;;;;;4957287;28;20184;-62
2023/08/19 08:41:21;;;;;;;3.20;3.03;;;42.60;58.00;;;;;;4957602;29;20204;-62
2023/08/19 08:43:48;;;;;;;3.20;2.90;;;43.00;57.10;;;;;;4957236;29;20256;-62
2023/08/19 08:46:18;;;;;;;2.73;2.63;;;43.10;57.30;;;;;;4957355;28;20898;-62
2023/08/19 08:48:44;;;;;;;2.83;2.63;;;43.20;57.20;;;;;;4957348;29;20435;-62
2023/08/19 08:51:10;;;;;;;3.40;3.20;;;43.20;56.80;;;;;;4957400;29;20408;-62
2023/08/19 08:53:36;;;;;;;2.90;2.80;;;43.30;55.60;;;;;;4957150;29;20165;-62
2023/08/19 08:56:03;;;;;;;2.67;2.57;;;43.60;55.50;;;;;;4957303;28;20435;-62
2023/08/19 08:58:28;;;;;;;2.97;2.77;;;43.70;54.90;;;;;;4957026;29;20540;-63
2023/08/19 09:00:54;;;;;;;3.17;2.97;;;43.90;53.90;;;;;;4957032;29;20397;-63
2023/08/19 09:03:24;;;;;;;2.70;2.60;;;43.70;54.20;;;;;;4957301;29;20508;-63
2023/08/19 09:05:57;;;;;;;2.33;2.23;;;43.30;54.20;;;;;;4957124;28;20476;-63
2023/08/19 09:08:35;;;;;;;2.77;2.47;;;43.20;53.90;;;;;;4957093;29;20499;-63
2023/08/19 09:11:04;;;;;;;2.70;2.60;;;43.30;54.10;;;;;;4957379;29;20471;-63
2023/08/19 09:13:31;;;;;;;2.83;2.67;;;43.00;53.70;;;;;;4957099;29;20496;-63
2023/08/19 09:15:57;;;;;;;2.50;2.40;;;43.20;53.80;;;;;;4956804;28;20432;-63
2023/08/19 09:18:24;;;;;;;3.17;2.97;;;43.50;53.00;;;;;;4956961;29;20414;-62
2023/08/19 09:20:50;;;;;;;3.20;2.90;;;43.60;53.60;;;;;;4957071;29;20528;-63
2023/08/19 09:23:16;;;;;;;3.27;3.07;;;43.90;53.00;;;;;;4956801;29;20779;-63
2023/08/19 09:25:42;;;;;;;2.80;2.70;;;44.00;52.00;;;;;;4956256;28;20455;-62
2023/08/19 09:28:07;;;;;;;2.73;2.63;;;43.80;51.90;;;;;;4956820;29;20185;-62
2023/08/19 09:30:34;;;;;;;2.93;2.83;;;44.20;51.40;;;;;;4939527;29;20172;-62
2023/08/19 09:33:00;;;;;;;3.20;3.00;;;44.80;49.90;;;;;;4956699;29;20239;-63
2023/08/19 09:35:35;;;;;;;3.07;2.97;;;45.10;49.50;;;;;;4938937;29;20474;-63
2023/08/19 09:38:01;;;;;;;2.73;2.63;;;45.00;50.70;;;;;;4956505;29;20259;-63
2023/08/19 09:40:26;;;;;;;3.20;3.10;;;45.00;51.00;;;;;;4956350;29;20888;-62
2023/08/19 09:42:52;;;;;;;2.77;2.67;;;45.40;50.90;;;;;;4956358;29;20182;-63
2023/08/19 09:45:21;;;;;;;3.10;3.00;;;45.30;50.60;;;;;;4938602;29;20239;-62
2023/08/19 09:47:49;;;;;;;3.30;3.10;;;45.20;50.90;;;;;;4956470;29;20173;-63
2023/08/19 09:50:17;;;;;;;2.80;2.70;;;45.40;50.00;;;;;;4955698;28;20164;-63
2023/08/19 09:52:53;;;;;;;3.08;2.92;;;45.60;49.40;;;;;;4956297;29;20416;-62
2023/08/19 09:55:22;;;;;;;3.50;3.40;;;45.80;49.50;;;;;;4955985;28;20196;-62
2023/08/19 09:57:48;;;;;;;3.90;3.70;;;46.00;50.50;;;;;;4956108;29;20192;-62
2023/08/19 10:00:14;;;;;;;3.25;3.15;;;46.10;48.40;;;;;;4956134;29;20177;-63
2023/08/19 10:02:39;;;;;;;3.10;3.00;;;46.00;48.80;;;;;;4955973;29;20651;-63
2023/08/19 10:05:05;;;;;;;3.42;3.30;;;45.90;48.10;;;;;;4955282;28;20211;-63
2023/08/19 10:07:33;;;;;;;3.05;2.95;;;45.70;47.70;;;;;;4956294;29;20185;-63
2023/08/19 10:10:03;;;;;;;3.90;3.70;;;45.40;48.50;;;;;;4956040;29;20583;-63
2023/08/19 10:12:33;;;;;;;3.78;3.58;;;45.20;50.10;;;;;;4955965;29;20184;-63
2023/08/19 10:15:00;;;;;;;3.50;3.40;;;45.40;48.70;;;;;;4955649;28;20554;-63
2023/08/19 10:17:27;;;;;;;3.70;3.53;;;45.50;48.30;;;;;;4955861;29;20180;-63
2023/08/19 10:19:59;;;;;;;3.90;3.70;;;46.00;48.70;;;;;;4938877;29;20626;-63
2023/08/19 10:22:27;;;;;;;3.78;3.58;;;46.20;48.30;;;;;;4955893;29;20216;-63
2023/08/19 10:24:54;;;;;;;5.68;5.28;;;46.10;47.80;;;;;;4955338;28;20634;-63
2023/08/19 10:27:20;;;;;;;3.00;2.90;;;46.00;47.20;;;;;;4955734;29;20177;-63
2023/08/19 10:29:46;;;;;;;3.40;3.10;;;45.90;46.50;;;;;;4955726;29;20177;-63
2023/08/19 10:32:31;;;;;;;3.60;3.40;;;46.00;46.40;;;;;;4955646;29;20258;-63
2023/08/19 10:35:10;;;;;;;2.90;2.80;;;45.90;47.40;;;;;;4955204;28;20436;-63
2023/08/19 10:37:40;;;;;;;2.90;2.80;;;45.60;46.90;;;;;;4955471;29;20176;-63
2023/08/19 10:40:11;;;;;;;3.50;3.30;;;44.80;49.10;;;;;;4955534;29;20404;-63
2023/08/19 10:42:38;;;;;;;4.57;2.70;;;44.60;48.30;;;;;;4955595;29;20811;-63
2023/08/19 10:45:24;;;;;;;3.13;2.93;;;44.40;48.70;;;;;;4954976;28;20543;-63
2023/08/19 10:47:53;;;;;;;3.37;3.17;;;44.10;47.90;;;;;;4938796;29;20843;-63
2023/08/19 10:50:19;;;;;;;3.20;3.00;;;43.80;47.60;;;;;;4955241;29;20408;-62
2023/08/19 10:53:01;;;;;;;2.70;2.50;;;43.40;48.40;;;;;;4955360;29;20467;-63
2023/08/19 10:55:27;;;;;;;3.03;2.90;;;43.00;47.90;;;;;;4955348;28;20200;-63
2023/08/19 10:57:53;;;;;;;2.73;2.50;;;42.90;48.40;;;;;;4955632;29;20608;-63
2023/08/19 11:00:23;;;;;;;3.00;2.80;;;43.00;49.30;;;;;;4956111;28;20423;-63
2023/08/19 11:02:50;;;;;;;3.23;3.03;;;43.00;48.20;;;;;;4962016;29;20448;-63
2023/08/19 11:05:26;;;;;;;2.87;2.77;;;43.00;48.30;;;;;;4959831;28;20462;-63
2023/08/19 11:07:52;;;;;;;3.70;3.50;;;43.00;48.70;;;;;;4959663;29;20407;-63
2023/08/19 11:10:18;;;;;;;2.80;2.70;;;43.20;49.10;;;;;;4959364;29;20820;-63
2023/08/19 11:12:48;;;;;;;5.30;2.90;;;43.30;47.80;;;;;;4959269;29;20543;-63
2023/08/19 11:15:25;;;;;;;2.90;2.67;;;42.90;48.20;;;;;;4958811;28;20713;-62
2023/08/19 11:17:50;;;;;;;3.47;2.87;;;42.00;48.70;;;;;;4959140;29;20412;-62
2023/08/19 11:20:17;;;;;;;2.90;2.70;;;41.10;49.10;;;;;;4958970;29;20556;-62
2023/08/19 11:22:45;;;;;;;2.90;2.70;;;40.30;50.10;;;;;;4958872;29;20195;-62
2023/08/19 11:25:12;;;;;;;3.00;2.80;;;39.50;51.60;;;;;;4958275;28;20990;-63
2023/08/19 11:27:38;;;;;;;3.73;2.40;;;38.80;51.40;;;;;;4959347;29;20774;-63
2023/08/19 11:30:05;;;;;;;2.90;2.70;;;38.10;52.60;;;;;;4959089;29;20386;-63
2023/08/19 11:32:31;;;;;;;5.13;2.80;;;37.50;53.30;;;;;;4958810;29;20409;-63
2023/08/19 11:34:57;;;;;;;2.40;2.30;;;37.20;54.10;;;;;;4958253;28;20454;-63
2023/08/19 11:37:22;;;;;;;2.67;2.47;;;36.80;54.10;;;;;;4958612;29;20231;-63
2023/08/19 11:39:48;;;;;;;3.30;2.43;;;36.50;53.60;;;;;;4958708;29;20228;-63
2023/08/19 11:42:13;;;;;;;3.40;3.10;;;36.30;53.80;;;;;;4958539;29;20235;-63
2023/08/19 11:44:42;;;;;;;2.20;2.10;;;36.00;54.10;;;;;;4958128;28;20626;-63
2023/08/19 11:47:08;;;;;;;3.53;2.30;;;35.90;54.30;;;;;;4958629;29;20564;-63
2023/08/19 11:49:34;;;;;;;2.60;2.40;;;35.80;54.50;;;;;;4958484;29;20400;-63
2023/08/19 11:51:59;;;;;;;4.70;2.80;;;35.80;54.90;;;;;;4958538;29;20173;-63
2023/08/19 11:54:25;;;;;;;2.63;2.43;;;35.80;53.80;;;;;;4958099;28;20181;-63
2023/08/19 11:56:55;;;;;;;2.50;2.13;;;35.80;53.40;;;;;;4958491;29;20180;-63
2023/08/19 11:59:29;;;;;;;2.53;2.33;;;35.80;53.40;;;;;;4958371;29;20220;-63
2023/08/19 12:01:55;;;;;;;3.13;2.80;;;35.90;52.80;;;;;;4958631;29;21530;-63
2023/08/19 12:04:22;;;;;;;2.43;2.30;;;35.90;53.20;;;;;;4957804;28;20887;-63
2023/08/19 12:06:47;;;;;;;2.57;2.43;;;36.00;53.60;;;;;;4958123;29;20422;-63
2023/08/19 12:09:17;;;;;;;2.80;2.60;;;36.00;53.60;;;;;;4958115;29;20766;-63
2023/08/19 12:11:47;;;;;;;3.17;2.63;;;36.10;54.30;;;;;;4957692;28;20707;-63
2023/08/19 12:14:13;;;;;;;2.87;2.67;;;36.20;54.60;;;;;;4957534;28;20783;-63
2023/08/19 12:16:38;;;;;;;3.53;3.17;;;36.50;53.60;;;;;;4957861;29;20383;-63
2023/08/19 12:19:04;;;;;;;2.90;2.27;;;36.50;53.00;;;;;;4940731;29;20187;-63
2023/08/19 12:21:29;;;;;;;2.67;2.20;;;36.50;53.30;;;;;;4957986;29;20567;-63
2023/08/19 12:23:55;;;;;;;2.27;2.17;;;36.40;52.80;;;;;;4957785;29;20698;-63
2023/08/19 12:26:21;;;;;;;2.13;2.03;;;36.40;52.80;;;;;;4941289;29;20201;-63
2023/08/19 12:28:48;;;;;;;2.60;2.40;;;36.40;52.90;;;;;;4957958;29;20244;-63
2023/08/19 12:31:13;;;;;;;3.30;2.37;;;36.40;53.20;;;;;;4958124;29;20540;-63
2023/08/19 12:33:42;;;;;;;4.43;2.80;;;36.30;53.50;;;;;;4957410;29;20495;-63
2023/08/19 12:36:08;;;;;;;2.60;2.30;;;36.20;55.30;;;;;;4957652;28;20235;-62
2023/08/19 12:38:33;;;;;;;2.90;2.70;;;36.10;57.30;;;;;;4957828;29;20415;-63
2023/08/19 12:41:01;;;;;;;2.53;2.33;;;36.00;56.10;;;;;;4958264;29;20555;-63
2023/08/19 12:43:27;;;;;;;2.50;2.30;;;36.00;58.10;;;;;;4957162;29;20191;-63
2023/08/19 12:45:52;;;;;;;3.93;3.23;;;35.90;57.00;;;;;;4957442;28;20443;-63
2023/08/19 12:48:18;;;;;;;2.17;2.07;;;35.70;56.40;;;;;;4957481;29;20176;-63
2023/08/19 12:50:43;;;;;;;2.43;2.23;;;35.60;56.80;;;;;;4957433;29;20184;-63
2023/08/19 12:53:09;;;;;;;3.03;2.83;;;35.40;56.30;;;;;;4957411;29;20313;-63
2023/08/19 12:55:35;;;;;;;2.90;2.70;;;35.30;57.10;;;;;;4956979;28;20189;-62
2023/08/19 12:58:00;;;;;;;3.17;2.87;;;35.30;59.00;;;;;;4957284;29;20256;-63
2023/08/19 13:00:28;;;;;;;4.00;2.83;;;35.40;58.60;;;;;;4957303;29;20393;-63
2023/08/19 13:02:54;;;;;;;2.30;2.20;;;35.40;57.70;;;;;;4957286;29;20544;-63
2023/08/19 13:05:21;;;;;;;3.20;2.90;;;35.50;57.00;;;;;;4956661;28;20469;-64
2023/08/19 13:07:47;;;;;;;2.70;2.50;;;35.60;56.10;;;;;;4957264;29;20430;-62
2023/08/19 13:10:14;;;;;;;2.70;2.50;;;35.70;56.30;;;;;;4957015;29;20418;-63
2023/08/19 13:12:40;;;;;;;3.07;2.60;;;35.60;56.10;;;;;;4957111;29;20540;-63
2023/08/19 13:15:08;;;;;;;3.90;2.60;;;35.70;56.80;;;;;;4956573;28;20427;-63
2023/08/19 13:17:34;;;;;;;2.97;2.77;;;35.70;57.10;;;;;;4956995;29;20482;-63
2023/08/19 13:20:00;;;;;;;2.00;1.90;;;35.70;56.20;;;;;;4956865;29;20388;-63
2023/08/19 13:22:26;;;;;;;2.90;2.70;;;35.50;56.20;;;;;;4957167;29;20427;-63
2023/08/19 13:24:51;;;;;;;2.60;2.40;;;35.50;56.40;;;;;;4955392;28;20204;-63
2023/08/19 13:27:17;;;;;;;2.80;2.60;;;35.50;56.50;;;;;;4956746;29;20176;-63
2023/08/19 13:29:47;;;;;;;2.60;2.40;;;35.60;55.70;;;;;;4957045;29;20173;-63
2023/08/19 13:32:13;;;;;;;2.67;2.47;;;35.60;56.40;;;;;;4956783;29;20416;-63
2023/08/19 13:34:39;;;;;;;2.63;2.43;;;35.60;56.00;;;;;;4956204;28;20949;-63
2023/08/19 13:37:08;;;;;;;2.53;2.20;;;35.60;55.60;;;;;;4956496;29;20394;-63
2023/08/19 13:39:35;;;;;;;3.47;2.83;;;35.50;55.50;;;;;;4956551;29;20404;-63
2023/08/19 13:42:01;;;;;;;2.97;2.37;;;35.40;56.20;;;;;;4956953;29;20406;-63
2023/08/19 13:44:27;;;;;;;2.87;2.67;;;35.30;57.60;;;;;;4956107;28;20899;-63
2023/08/19 13:46:53;;;;;;;3.33;3.00;;;35.20;58.10;;;;;;4956204;29;20208;-63
2023/08/19 13:49:19;;;;;;;4.60;2.60;;;35.20;58.60;;;;;;4956673;29;20466;-63
2023/08/19 13:51:49;;;;;;;2.80;2.60;;;35.00;58.90;;;;;;4939458;29;20256;-63
2023/08/19 13:54:15;;;;;;;2.87;2.67;;;34.90;59.60;;;;;;4956066;28;20487;-63
2023/08/19 13:56:45;;;;;;;2.90;2.70;;;34.80;60.00;;;;;;4956486;29;20402;-62
2023/08/19 13:59:11;;;;;;;3.80;3.50;;;34.70;62.50;;;;;;4956593;29;20771;-63
2023/08/19 14:01:37;;;;;;;3.57;3.30;;;34.50;64.80;;;;;;4956238;29;20375;-63
2023/08/19 14:04:03;;;;;;;4.73;3.60;;;34.40;68.10;;;;;;4955745;29;20717;-62
2023/08/19 14:06:29;;;;;;;4.10;3.70;;;34.10;68.30;;;;;;4955703;28;20571;-63
2023/08/19 14:08:55;;;;;;;3.23;3.03;;;33.90;68.10;;;;;;4956103;29;20406;-63
2023/08/19 14:11:20;;;;;;;3.37;3.10;;;33.70;68.30;;;;;;4955951;29;20177;-63
2023/08/19 14:13:46;;;;;;;3.87;3.57;;;33.50;69.40;;;;;;4955710;29;20260;-62
2023/08/19 14:16:12;;;;;;;3.83;3.60;;;33.30;69.60;;;;;;4955777;28;20787;-63
2023/08/19 14:18:37;;;;;;;3.47;3.20;;;33.20;70.10;;;;;;4955888;29;20177;-63
2023/08/19 14:21:03;;;;;;;4.03;3.73;;;33.10;71.50;;;;;;4955885;29;20532;-63
2023/08/19 14:23:29;;;;;;;3.53;3.23;;;33.00;72.40;;;;;;4955384;29;20180;-63
2023/08/19 14:25:56;;;;;;;3.50;3.20;;;32.90;72.10;;;;;;4955515;28;20287;-63
2023/08/19 14:28:21;;;;;;;4.00;3.60;;;32.80;71.50;;;;;;4955812;29;20387;-63
2023/08/19 14:30:47;;;;;;;3.93;3.63;;;32.60;72.40;;;;;;4955665;29;20900;-63
2023/08/19 14:33:13;;;;;;;3.57;3.37;;;32.50;72.20;;;;;;4955671;29;20180;-62
2023/08/19 14:35:41;;;;;;;3.90;3.60;;;32.40;73.10;;;;;;4954869;28;20193;-62
2023/08/19 14:38:07;;;;;;;3.67;3.37;;;32.30;74.10;;;;;;4955357;29;20714;-63
2023/08/19 14:40:32;;;;;;;4.00;3.63;;;32.30;73.80;;;;;;4955584;29;20387;-62
2023/08/19 14:42:58;;;;;;;3.30;3.10;;;32.30;76.10;;;;;;4955551;29;20173;-63
2023/08/19 14:45:24;;;;;;;3.67;3.27;;;32.30;74.50;;;;;;4955198;28;20292;-62
2023/08/19 14:47:49;;;;;;;3.33;3.10;;;32.50;73.80;;;;;;4955566;29;20513;-63
2023/08/19 14:50:15;;;;;;;3.23;3.03;;;32.40;73.00;;;;;;4955278;29;20509;-63
2023/08/19 14:52:40;;;;;;;4.07;3.67;;;32.50;71.60;;;;;;4955455;29;20209;-62
2023/08/19 14:55:06;;;;;;;3.70;3.33;;;32.50;70.70;;;;;;4954948;28;20682;-63
2023/08/19 14:57:32;;;;;;;3.70;3.40;;;32.60;71.00;;;;;;4955128;29;20688;-62
2023/08/19 14:59:57;;;;;;;3.50;3.20;;;32.60;70.70;;;;;;4955572;29;20185;-63
2023/08/19 15:02:43;;;;;;;3.73;3.43;;;32.50;70.70;;;;;;4955374;29;20205;-63
2023/08/19 15:05:09;;;;;;;3.30;3.10;;;32.40;70.40;;;;;;4954798;28;20196;-63
2023/08/19 15:07:35;;;;;;;4.47;4.07;;;32.40;70.10;;;;;;4955056;29;20410;-62
2023/08/19 15:10:00;;;;;;;3.70;3.40;;;32.40;70.60;;;;;;4955212;29;20169;-63
2023/08/19 15:12:26;;;;;;;4.00;3.60;;;32.30;70.60;;;;;;4955404;29;20421;-62
2023/08/19 15:14:52;;;;;;;4.17;3.80;;;32.30;71.30;;;;;;4955078;28;20256;-62
2023/08/19 15:17:17;;;;;;;3.70;3.23;;;32.20;71.90;;;;;;4938324;29;20184;-63
2023/08/19 15:19:43;;;;;;;3.40;3.10;;;32.10;72.30;;;;;;4955341;29;20180;-64
2023/08/19 15:22:08;;;;;;;3.60;3.30;;;31.90;72.50;;;;;;4955311;29;20181;-65
2023/08/19 15:24:34;;;;;;;3.70;3.40;;;31.80;72.70;;;;;;4954938;28;20619;-66
2023/08/19 15:26:59;;;;;;;3.63;3.30;;;31.70;72.90;;;;;;4955031;29;20173;-65
2023/08/19 15:29:25;;;;;;;7.33;3.33;;;31.70;73.60;;;;;;4955190;29;20170;-62
2023/08/19 15:31:50;;;;;;;3.80;3.50;;;31.60;74.10;;;;;;4955111;29;20173;-62
2023/08/19 15:34:16;;;;;;;4.30;3.90;;;31.50;73.00;;;;;;4954542;28;20679;-62
2023/08/19 15:36:42;;;;;;;3.23;3.00;;;31.40;73.50;;;;;;4955000;29;20694;-62
2023/08/19 15:39:08;;;;;;;4.17;3.40;;;31.30;73.90;;;;;;4955273;29;20528;-62
2023/08/19 15:41:34;;;;;;;3.80;3.50;;;31.30;74.30;;;;;;4955020;29;20207;-62
2023/08/19 15:44:00;;;;;;;3.83;3.50;;;31.20;74.60;;;;;;4954684;29;20978;-62
2023/08/19 15:46:25;;;;;;;3.50;3.30;;;31.20;75.10;;;;;;4954870;28;20205;-62
2023/08/19 15:48:52;;;;;;;3.50;3.20;;;31.10;77.00;;;;;;4957719;29;20183;-62
2023/08/19 15:51:17;;;;;;;3.97;3.67;;;31.00;77.10;;;;;;4958360;29;20655;-63
2023/08/19 15:53:43;;;;;;;4.50;3.77;;;30.80;78.10;;;;;;4958003;29;20467;-62
2023/08/19 15:56:08;;;;;;;3.40;3.10;;;30.70;79.20;;;;;;4958402;28;20228;-62
2023/08/19 15:58:35;;;;;;;3.90;3.37;;;30.50;79.40;;;;;;4958442;29;20188;-62
2023/08/19 16:01:01;;;;;;;3.57;3.27;;;30.50;80.40;;;;;;4958376;29;20169;-62
2023/08/19 16:03:26;;;;;;;4.07;3.70;;;30.40;81.40;;;;;;4957999;29;20461;-62
2023/08/19 16:05:58;;;;;;;3.60;3.30;;;30.30;81.90;;;;;;4940556;29;20549;-62
2023/08/19 16:08:23;;;;;;;4.43;3.60;;;30.30;82.40;;;;;;4958099;29;20205;-62
2023/08/19 16:10:49;;;;;;;3.57;3.23;;;30.20;83.10;;;;;;4958258;29;20415;-63
2023/08/19 16:13:15;;;;;;;3.67;3.37;;;30.20;83.20;;;;;;4958152;29;20180;-62
2023/08/19 16:15:40;;;;;;;4.37;3.97;;;30.10;83.70;;;;;;4957544;28;20251;-62
2023/08/19 16:18:06;;;;;;;3.90;3.60;;;30.10;83.60;;;;;;4958490;29;20173;-62
2023/08/19 16:20:31;;;;;;;6.47;3.80;;;30.10;84.10;;;;;;4957854;29;20183;-62
2023/08/19 16:22:57;;;;;;;8.73;3.80;;;30.00;84.30;;;;;;4957759;29;20173;-62
2023/08/19 16:25:23;;;;;;;4.43;3.80;;;30.00;84.90;;;;;;4957578;28;20704;-62
2023/08/19 16:27:48;;;;;;;3.83;3.53;;;30.00;85.10;;;;;;4957849;29;20674;-62
2023/08/19 16:30:14;;;;;;;3.30;3.00;;;30.00;85.20;;;;;;4957919;29;20180;-62
2023/08/19 16:32:39;;;;;;;4.03;3.10;;;30.00;85.80;;;;;;4957628;29;20782;-62
2023/08/19 16:35:06;;;;;;;3.77;3.37;;;29.90;86.10;;;;;;4957275;28;20268;-62
2023/08/19 16:37:31;;;;;;;3.97;3.60;;;29.90;87.20;;;;;;4957659;29;20184;-62
2023/08/19 16:39:57;;;;;;;3.93;3.63;;;29.80;87.20;;;;;;4957708;29;20474;-62
2023/08/19 16:42:24;;;;;;;3.80;3.50;;;29.70;86.80;;;;;;4957366;29;20173;-62
2023/08/19 16:44:50;;;;;;;4.83;3.60;;;29.60;87.10;;;;;;4956960;28;20212;-62
2023/08/19 16:47:15;;;;;;;3.20;2.90;;;29.60;88.00;;;;;;4957771;29;20446;-62
2023/08/19 16:49:41;;;;;;;3.57;3.37;;;29.50;88.30;;;;;;4957584;29;20221;-62
2023/08/19 16:52:06;;;;;;;3.80;3.50;;;29.40;88.80;;;;;;4957387;29;20180;-62